createdAt,value
2018-09-25T00:02:15.030Z,103079.88
2018-09-25T00:04:50.359Z,103078.22
2018-09-25T00:07:25.206Z,103077.48
2018-09-25T00:10:00.115Z,103079.59
2018-09-25T00:12:34.875Z,103089.05
2018-09-25T00:15:09.759Z,103081.85
2018-09-25T00:17:44.543Z,103080.55
2018-09-25T00:20:19.323Z,103082.16
2018-09-25T00:22:54.159Z,103085.64
2018-09-25T00:25:28.984Z,103076.00
2018-09-25T00:28:04.016Z,103081.20
2018-09-25T00:30:38.779Z,103078.70
2018-09-25T00:33:13.679Z,103084.52
2018-09-25T00:35:48.911Z,103086.28
2018-09-25T00:38:23.440Z,103084.67
2018-09-25T00:40:58.483Z,103088.82
2018-09-25T00:43:33.259Z,103092.92
2018-09-25T00:46:07.959Z,103099.02
2018-09-25T00:48:42.342Z,103097.22
2018-09-25T00:51:17.877Z,103097.33
2018-09-25T00:53:52.675Z,103093.98
2018-09-25T00:56:27.641Z,103092.42
2018-09-25T00:59:02.766Z,103092.95
2018-09-25T01:01:37.833Z,103090.65
2018-09-25T01:04:12.384Z,103090.78
2018-09-25T01:06:47.358Z,103098.30
2018-09-25T01:09:22.538Z,103100.46
2018-09-25T01:11:57.406Z,103091.94
2018-09-25T01:14:32.422Z,103093.42
2018-09-25T01:17:07.440Z,103093.27
2018-09-25T01:19:43.252Z,103095.20
2018-09-25T01:22:17.973Z,103099.50
2018-09-25T01:24:52.564Z,103103.00
2018-09-25T01:27:27.777Z,103104.27
2018-09-25T01:30:02.571Z,103102.90
2018-09-25T01:32:37.183Z,103102.78
2018-09-25T01:35:12.259Z,103108.58
2018-09-25T01:37:47.855Z,103107.48
2018-09-25T01:40:22.203Z,103108.50
2018-09-25T01:42:57.334Z,103117.23
2018-09-25T01:45:32.195Z,103116.31
2018-09-25T01:48:06.983Z,103121.88
2018-09-25T01:50:41.533Z,103116.73
2018-09-25T01:53:17.700Z,103119.61
2018-09-25T01:55:52.354Z,103121.14
2018-09-25T01:58:27.732Z,103118.59
2018-09-25T02:01:02.995Z,103119.58
2018-09-25T02:03:37.604Z,103121.80
2018-09-25T02:06:12.880Z,103104.92
2018-09-25T02:08:48.290Z,103124.80
2018-09-25T02:11:23.387Z,103123.01
2018-09-25T02:13:58.927Z,103123.52
2018-09-25T02:16:33.747Z,103116.62
2018-09-25T02:19:08.333Z,103126.59
2018-09-25T02:21:43.091Z,103125.55
2018-09-25T02:24:18.513Z,103121.39
2018-09-25T02:26:53.488Z,103120.21
2018-09-25T02:29:28.842Z,103119.27
2018-09-25T02:32:03.452Z,103125.27
2018-09-25T02:34:38.229Z,103121.60
2018-09-25T02:37:12.991Z,103124.12
2018-09-25T02:39:47.607Z,103122.20
2018-09-25T02:42:22.194Z,103121.09
2018-09-25T02:44:56.812Z,103128.78
2018-09-25T02:47:31.398Z,103127.47
2018-09-25T02:50:06.207Z,103128.39
2018-09-25T02:52:41.668Z,103127.92
2018-09-25T02:55:16.443Z,103129.11
2018-09-25T02:57:51.244Z,103128.55
2018-09-25T03:00:25.955Z,103128.78
2018-09-25T03:03:01.348Z,103137.22
2018-09-25T03:05:36.526Z,103135.78
2018-09-25T03:08:11.754Z,103136.41
2018-09-25T03:10:46.719Z,103136.81
2018-09-25T03:13:21.575Z,103132.25
2018-09-25T03:15:56.265Z,103126.08
2018-09-25T03:18:31.277Z,103125.61
2018-09-25T03:21:06.404Z,103129.05
2018-09-25T03:23:42.376Z,103125.92
2018-09-25T03:26:19.002Z,103119.50
2018-09-25T03:28:54.292Z,103121.62
2018-09-25T03:31:29.437Z,103113.36
2018-09-25T03:34:05.480Z,103116.70
2018-09-25T03:36:40.943Z,103117.22
2018-09-25T03:39:15.763Z,103116.95
2018-09-25T03:41:50.327Z,103117.17
2018-09-25T03:44:24.927Z,103116.64
2018-09-25T03:46:59.834Z,103117.61
2018-09-25T03:49:35.254Z,103116.66
2018-09-25T03:52:09.877Z,103114.11
2018-09-25T03:54:44.922Z,103120.77
2018-09-25T03:57:20.696Z,103125.67
2018-09-25T03:59:56.255Z,103128.70
2018-09-25T04:02:31.130Z,103123.83
2018-09-25T04:05:05.917Z,103126.80
2018-09-25T04:07:40.706Z,103126.34
2018-09-25T04:10:15.407Z,103128.52
2018-09-25T04:12:50.705Z,103133.23
2018-09-25T04:15:25.754Z,103133.75
2018-09-25T04:18:00.807Z,103136.61
2018-09-25T04:20:36.053Z,103136.05
2018-09-25T04:23:11.208Z,103142.13
2018-09-25T04:25:46.310Z,103139.17
2018-09-25T04:28:21.654Z,103135.91
2018-09-25T04:30:56.943Z,103133.76
2018-09-25T04:33:33.547Z,103141.87
2018-09-25T04:36:08.130Z,103140.73
2018-09-25T04:38:43.163Z,103145.85
2018-09-25T04:41:17.835Z,103145.70
2018-09-25T04:43:52.624Z,103143.55
2018-09-25T04:46:27.451Z,103148.17
2018-09-25T04:49:01.738Z,103150.95
2018-09-25T04:51:36.749Z,103151.30
2018-09-25T04:54:11.760Z,103159.62
2018-09-25T04:56:46.812Z,103160.31
2018-09-25T04:59:21.571Z,103149.73
2018-09-25T05:01:57.114Z,103160.81
2018-09-25T05:04:32.111Z,103163.41
2018-09-25T05:07:07.144Z,103173.08
2018-09-25T05:09:41.839Z,103169.34
2018-09-25T05:12:16.459Z,103177.83
2018-09-25T05:14:51.396Z,103180.77
2018-09-25T05:17:26.382Z,103178.64
2018-09-25T05:20:00.951Z,103183.70
2018-09-25T05:22:35.939Z,103188.51
2018-09-25T05:25:10.558Z,103191.98
2018-09-25T05:27:45.290Z,103202.73
2018-09-25T05:30:21.034Z,103199.23
2018-09-25T05:32:56.254Z,103201.02
2018-09-25T05:35:31.379Z,103200.81
2018-09-25T05:38:06.391Z,103196.10
2018-09-25T05:40:40.999Z,103198.22
2018-09-25T05:43:15.887Z,103194.22
2018-09-25T05:45:51.275Z,103197.56
2018-09-25T05:48:26.654Z,103202.93
2018-09-25T05:51:01.159Z,103195.69
2018-09-25T05:53:35.646Z,103207.32
2018-09-25T05:56:10.811Z,103218.78
2018-09-25T05:58:45.987Z,103176.34
2018-09-25T06:01:20.943Z,103211.27
2018-09-25T06:03:55.974Z,103211.30
2018-09-25T06:06:31.291Z,103219.41
2018-09-25T06:09:05.983Z,103211.62
2018-09-25T06:11:40.999Z,103210.03
2018-09-25T06:14:15.905Z,103203.86
2018-09-25T06:16:50.523Z,103210.58
2018-09-25T06:19:24.999Z,103213.50
2018-09-25T06:22:00.071Z,103212.00
2018-09-25T06:24:35.000Z,103213.03
2018-09-25T06:27:09.655Z,103224.82
2018-09-25T06:29:43.955Z,103227.17
2018-09-25T06:32:18.722Z,103227.13
2018-09-25T06:34:53.716Z,103229.84
2018-09-25T06:37:29.259Z,103231.94
2018-09-25T06:40:03.959Z,103230.69
2018-09-25T06:42:38.699Z,103239.85
2018-09-25T06:45:13.747Z,103230.23
2018-09-25T06:47:48.812Z,103231.60
2018-09-25T06:50:23.825Z,103228.97
2018-09-25T06:52:58.551Z,103237.66
2018-09-25T06:55:33.634Z,103239.70
2018-09-25T06:58:08.700Z,103244.18
2018-09-25T07:00:43.524Z,103245.31
2018-09-25T07:03:18.410Z,103247.03
2018-09-25T07:05:53.214Z,103250.32
2018-09-25T07:08:28.333Z,103245.76
2018-09-25T07:11:04.114Z,103246.25
2018-09-25T07:13:38.918Z,103250.78
2018-09-25T07:16:13.986Z,103252.02
2018-09-25T07:18:48.914Z,103251.89
2018-09-25T07:21:24.130Z,103260.34
2018-09-25T07:23:59.281Z,103254.98
2018-09-25T07:26:34.103Z,103264.92
2018-09-25T07:29:08.882Z,103269.15
2018-09-25T07:31:43.736Z,103264.40
2018-09-25T07:34:18.344Z,103273.00
2018-09-25T07:36:52.859Z,103280.05
2018-09-25T07:39:28.471Z,103281.44
2018-09-25T07:42:03.442Z,103282.78
2018-09-25T07:44:38.193Z,103285.43
2018-09-25T07:47:13.979Z,103291.37
2018-09-25T07:49:48.742Z,103294.41
2018-09-25T07:52:23.203Z,103301.56
2018-09-25T07:54:58.484Z,103295.41
2018-09-25T07:57:33.495Z,103292.47
2018-09-25T08:00:08.797Z,103286.13
2018-09-25T08:02:43.363Z,103292.48
2018-09-25T08:05:18.583Z,103288.77
2018-09-25T08:07:53.390Z,103290.94
2018-09-25T08:10:28.115Z,103291.70
2018-09-25T08:13:02.799Z,103298.59
2018-09-25T08:15:37.297Z,103287.55
2018-09-25T08:18:12.327Z,103284.90
2018-09-25T08:20:46.867Z,103288.23
2018-09-25T08:23:21.738Z,103295.31
2018-09-25T08:25:56.410Z,103297.65
2018-09-25T08:28:32.341Z,103289.00
2018-09-25T08:31:07.270Z,103291.53
2018-09-25T08:33:42.035Z,103285.81
2018-09-25T08:36:16.742Z,103289.09
2018-09-25T08:38:51.599Z,103279.84
2018-09-25T08:41:25.992Z,103280.95
2018-09-25T08:44:00.625Z,103299.66
2018-09-25T08:46:35.486Z,103295.47
2018-09-25T08:49:10.231Z,103310.87
2018-09-25T08:51:44.823Z,103316.12
2018-09-25T08:54:19.371Z,103308.26
2018-09-25T08:56:54.263Z,103309.99
2018-09-25T08:59:29.288Z,103310.57
2018-09-25T09:02:03.888Z,103316.78
2018-09-25T09:04:38.744Z,103317.52
2018-09-25T09:07:13.542Z,103317.58
2018-09-25T09:09:48.576Z,103317.18
2018-09-25T09:12:23.580Z,103314.67
2018-09-25T09:14:58.558Z,103308.06
2018-09-25T09:17:39.823Z,103308.53
2018-09-25T09:20:15.253Z,103300.03
2018-09-25T09:22:50.062Z,103301.63
2018-09-25T09:25:26.053Z,103296.11
2018-09-25T09:28:01.180Z,103290.50
2018-09-25T09:30:36.263Z,103287.28
2018-09-25T09:33:11.268Z,103284.25
2018-09-25T09:35:46.374Z,103277.50
2018-09-25T09:38:21.295Z,103274.89
2018-09-25T09:40:56.122Z,103279.23
2018-09-25T09:43:30.887Z,103280.51
2018-09-25T09:46:05.723Z,103284.33
2018-09-25T09:48:40.914Z,103281.25
2018-09-25T09:51:16.030Z,103279.13
2018-09-25T09:53:50.898Z,103277.20
2018-09-25T09:56:26.147Z,103273.95
2018-09-25T09:59:00.884Z,103279.63
2018-09-25T10:01:35.483Z,103262.48
2018-09-25T10:04:10.892Z,103264.60
2018-09-25T10:06:46.121Z,103260.72
2018-09-25T10:09:21.027Z,103256.56
2018-09-25T10:11:55.877Z,103252.38
2018-09-25T10:14:30.433Z,103262.91
2018-09-25T10:17:05.364Z,103262.65
2018-09-25T10:19:40.427Z,103261.69
2018-09-25T10:22:15.542Z,103251.97
2018-09-25T10:24:50.972Z,103251.80
2018-09-25T10:27:25.719Z,103250.37
2018-09-25T10:30:00.182Z,103255.99
2018-09-25T10:32:34.897Z,103257.06
2018-09-25T10:35:09.779Z,103253.69
2018-09-25T10:37:44.623Z,103251.35
2018-09-25T10:40:19.497Z,103239.94
2018-09-25T10:42:54.274Z,103244.53
2018-09-25T10:45:29.311Z,103246.13
2018-09-25T10:48:04.465Z,103255.66
2018-09-25T10:50:39.071Z,103243.03
2018-09-25T10:53:14.023Z,103244.31
2018-09-25T10:55:49.124Z,103244.50
2018-09-25T10:58:30.498Z,103237.01
2018-09-25T11:01:05.203Z,103233.79
2018-09-25T11:03:39.763Z,103233.08
2018-09-25T11:06:14.560Z,103224.47
2018-09-25T11:08:49.165Z,103223.44
2018-09-25T11:11:24.657Z,103219.67
2018-09-25T11:13:59.367Z,103215.39
2018-09-25T11:16:34.190Z,103218.49
2018-09-25T11:19:09.423Z,103222.60
2018-09-25T11:21:44.074Z,103223.13
2018-09-25T11:24:18.990Z,103227.39
2018-09-25T11:26:53.489Z,103229.64
2018-09-25T11:29:28.223Z,103218.91
2018-09-25T11:32:03.242Z,103217.21
2018-09-25T11:34:38.020Z,103225.11
2018-09-25T11:37:12.743Z,103227.39
2018-09-25T11:39:47.803Z,103220.84
2018-09-25T11:42:22.898Z,103220.34
2018-09-25T11:44:57.542Z,103220.95
2018-09-25T11:47:32.374Z,103214.72
2018-09-25T11:50:07.242Z,103210.78
2018-09-25T11:52:42.601Z,103206.72
2018-09-25T11:55:17.328Z,103205.07
2018-09-25T11:57:54.128Z,103199.85
2018-09-25T12:00:28.856Z,103191.37
2018-09-25T12:03:03.788Z,103188.34
2018-09-25T12:05:39.607Z,103186.80
2018-09-25T12:08:14.042Z,103183.81
2018-09-25T12:10:48.619Z,103171.28
2018-09-25T12:13:23.442Z,103151.33
2018-09-25T12:15:58.427Z,103167.67
2018-09-25T12:18:34.195Z,103165.84
2018-09-25T12:21:09.422Z,103167.05
2018-09-25T12:23:44.247Z,103176.53
2018-09-25T12:26:19.246Z,103185.45
2018-09-25T12:28:53.816Z,103191.73
2018-09-25T12:31:28.407Z,103185.88
2018-09-25T12:34:03.421Z,103176.34
2018-09-25T12:36:38.248Z,103173.05
2018-09-25T12:39:14.054Z,103172.59
2018-09-25T12:41:48.918Z,103173.59
2018-09-25T12:44:23.841Z,103177.41
2018-09-25T12:46:58.526Z,103179.03
2018-09-25T12:49:33.034Z,103169.30
2018-09-25T12:52:08.572Z,103167.25
2018-09-25T12:54:44.119Z,103175.42
2018-09-25T12:57:19.274Z,103175.98
2018-09-25T12:59:54.125Z,103164.14
2018-09-25T13:02:28.473Z,103159.89
2018-09-25T13:05:03.430Z,103171.41
2018-09-25T13:07:38.983Z,103154.59
2018-09-25T13:10:13.801Z,103155.45
2018-09-25T13:12:48.678Z,103140.28
2018-09-25T13:15:23.666Z,103142.37
2018-09-25T13:17:58.112Z,103135.92
2018-09-25T13:20:33.241Z,103141.05
2018-09-25T13:23:08.063Z,103136.52
2018-09-25T13:25:43.294Z,103123.02
2018-09-25T13:28:18.210Z,103117.38
2018-09-25T13:30:52.732Z,103119.47
2018-09-25T13:33:27.563Z,103108.73
2018-09-25T13:36:04.417Z,103103.62
2018-09-25T13:38:38.985Z,103089.00
2018-09-25T13:41:13.771Z,103084.61
2018-09-25T13:43:48.942Z,103087.70
2018-09-25T13:46:24.657Z,103088.08
2018-09-25T13:48:59.200Z,103083.31
2018-09-25T13:51:34.526Z,103078.94
2018-09-25T13:54:09.046Z,103075.39
2018-09-25T13:56:44.619Z,103069.44
2018-09-25T13:59:19.136Z,103068.94
2018-09-25T14:01:54.243Z,103064.41
2018-09-25T14:04:29.242Z,103062.28
2018-09-25T14:07:03.990Z,103066.39
2018-09-25T14:09:38.597Z,103070.39
2018-09-25T14:12:13.496Z,103060.09
2018-09-25T14:14:48.924Z,103055.44
2018-09-25T14:17:23.763Z,103063.42
2018-09-25T14:19:58.699Z,103053.75
2018-09-25T14:22:33.286Z,103043.45
2018-09-25T14:25:07.578Z,103035.98
2018-09-25T14:27:42.019Z,103040.97
2018-09-25T14:30:16.444Z,103046.91
2018-09-25T14:32:51.388Z,103043.13
2018-09-25T14:35:26.407Z,103035.98
2018-09-25T14:38:00.914Z,103037.95
2018-09-25T14:40:35.707Z,103034.08
2018-09-25T14:43:10.504Z,103033.50
2018-09-25T14:45:45.070Z,103038.08
2018-09-25T14:48:19.900Z,103024.69
2018-09-25T14:50:54.720Z,103027.00
2018-09-25T14:53:29.400Z,103029.86
2018-09-25T14:56:03.869Z,103028.92
2018-09-25T14:58:39.921Z,103028.56
2018-09-25T15:01:14.745Z,103032.20
2018-09-25T15:03:50.490Z,103029.95
2018-09-25T15:06:25.101Z,103028.86
2018-09-25T15:09:00.252Z,103023.27
2018-09-25T15:11:35.425Z,103016.42
2018-09-25T15:14:10.755Z,103020.93
2018-09-25T15:16:45.432Z,103008.25
2018-09-25T15:19:20.311Z,103003.20
2018-09-25T15:21:55.930Z,102997.52
2018-09-25T15:24:31.143Z,102996.77
2018-09-25T15:27:05.831Z,102992.85
2018-09-25T15:29:40.568Z,102983.48
2018-09-25T15:32:15.490Z,102987.96
2018-09-25T15:34:50.266Z,102992.59
2018-09-25T15:37:25.124Z,102997.94
2018-09-25T15:40:00.529Z,102997.89
2018-09-25T15:42:35.359Z,102999.23
2018-09-25T15:45:10.136Z,102997.15
2018-09-25T15:47:45.475Z,103005.77
2018-09-25T15:50:20.724Z,102997.70
2018-09-25T15:52:55.844Z,102991.95
2018-09-25T15:55:30.799Z,102999.21
2018-09-25T15:58:05.633Z,102987.52
2018-09-25T16:00:41.367Z,102990.10
2018-09-25T16:03:15.860Z,102988.50
2018-09-25T16:05:50.193Z,102993.54
2018-09-25T16:08:25.554Z,102990.66
2018-09-25T16:11:01.188Z,102989.47
2018-09-25T16:13:35.554Z,102986.16
2018-09-25T16:16:10.446Z,102988.14
2018-09-25T16:18:45.780Z,102993.38
2018-09-25T16:21:20.708Z,102992.07
2018-09-25T16:23:55.383Z,102992.06
2018-09-25T16:26:30.375Z,102992.73
2018-09-25T16:29:05.661Z,102992.23
2018-09-25T16:31:40.683Z,102993.23
2018-09-25T16:34:15.334Z,103002.41
2018-09-25T16:36:50.095Z,102991.66
2018-09-25T16:39:25.375Z,102990.96
2018-09-25T16:42:00.226Z,102991.09
2018-09-25T16:44:35.439Z,102994.84
2018-09-25T16:47:10.216Z,102984.69
2018-09-25T16:49:45.319Z,102995.73
2018-09-25T16:52:20.130Z,102995.81
2018-09-25T16:54:55.686Z,102996.67
2018-09-25T16:57:30.700Z,103004.05
2018-09-25T17:00:05.718Z,103009.85
2018-09-25T17:02:40.545Z,103014.02
2018-09-25T17:05:15.078Z,103011.16
2018-09-25T17:07:51.636Z,103010.08
2018-09-25T17:10:26.090Z,103011.61
2018-09-25T17:13:00.603Z,103010.17
2018-09-25T17:15:35.376Z,103012.42
2018-09-25T17:18:10.294Z,103019.27
2018-09-25T17:20:45.159Z,103013.14
2018-09-25T17:23:19.726Z,103015.21
2018-09-25T17:25:54.288Z,103019.63
2018-09-25T17:28:28.975Z,103025.01
2018-09-25T17:31:03.659Z,103027.77
2018-09-25T17:33:38.715Z,103027.89
2018-09-25T17:36:13.755Z,103030.95
2018-09-25T17:38:48.806Z,103035.52
2018-09-25T17:41:23.871Z,103036.56
2018-09-25T17:43:58.943Z,103027.42
2018-09-25T17:46:34.140Z,103033.96
2018-09-25T17:56:16.721Z,103038.64
2018-09-25T17:58:51.479Z,103034.77
2018-09-25T18:01:25.931Z,103046.22
2018-09-25T18:04:00.944Z,103054.99
2018-09-25T18:06:35.826Z,103054.27
2018-09-25T18:09:13.843Z,103053.10
2018-09-25T18:11:48.827Z,103063.95
2018-09-25T18:14:28.703Z,103062.56
2018-09-25T18:17:03.750Z,103066.41
2018-09-25T18:19:38.592Z,103052.62
2018-09-25T18:22:13.545Z,103065.01
2018-09-25T18:24:48.335Z,103067.09
2018-09-25T18:27:22.916Z,103072.62
2018-09-25T18:29:57.551Z,103070.23
2018-09-25T18:32:32.387Z,103070.41
2018-09-25T18:35:07.111Z,103064.80
2018-09-25T18:37:41.839Z,103066.90
2018-09-25T18:40:16.341Z,103072.20
2018-09-25T18:42:51.034Z,103076.59
2018-09-25T18:45:25.737Z,103081.76
2018-09-25T18:48:00.299Z,103085.22
2018-09-25T18:50:35.218Z,103087.19
2018-09-25T18:53:10.359Z,103096.96
2018-09-25T18:55:45.104Z,103097.97
2018-09-25T18:58:20.169Z,103092.58
2018-09-25T19:00:55.151Z,103088.47
2018-09-25T19:03:29.680Z,103083.69
2018-09-25T19:06:04.244Z,103089.00
2018-09-25T19:08:38.738Z,103089.19
2018-09-25T19:11:13.173Z,103093.09
2018-09-25T19:13:47.720Z,103090.69
2018-09-25T19:16:21.963Z,103093.70
2018-09-25T19:18:56.546Z,103092.83
2018-09-25T19:21:31.105Z,103092.55
2018-09-25T19:24:06.305Z,103101.55
2018-09-25T19:26:40.758Z,103085.77
2018-09-25T19:29:15.322Z,103093.83
2018-09-25T19:31:50.132Z,103089.54
2018-09-25T19:34:25.167Z,103090.30
2018-09-25T19:37:00.542Z,103076.69
2018-09-25T19:39:35.623Z,103085.73
2018-09-25T19:42:10.569Z,103086.36
2018-09-25T19:44:45.504Z,103088.14
2018-09-25T19:47:19.948Z,103090.16
2018-09-25T19:49:54.709Z,103083.95
2018-09-25T19:52:29.320Z,103089.06
2018-09-25T19:55:03.667Z,103087.21
2018-09-25T19:57:38.163Z,103082.82
2018-09-25T20:00:13.359Z,103087.91
2018-09-25T20:02:47.919Z,103091.79
2018-09-25T20:05:22.434Z,103092.80
2018-09-25T20:07:57.036Z,103088.27
2018-09-25T20:10:31.585Z,103090.31
2018-09-25T20:13:06.085Z,103096.38
2018-09-25T20:15:40.668Z,103095.19
2018-09-25T20:18:15.252Z,103096.58
2018-09-25T20:20:49.745Z,103093.61
2018-09-25T20:23:24.272Z,103093.90
2018-09-25T20:25:59.082Z,103092.73
2018-09-25T20:28:33.542Z,103090.38
2018-09-25T20:31:09.420Z,103083.73
2018-09-25T20:33:43.915Z,103071.36
2018-09-25T20:36:18.501Z,103070.45
2018-09-25T20:38:53.394Z,103056.64
2018-09-25T20:41:28.124Z,103058.90
2018-09-25T20:44:02.664Z,103056.73
2018-09-25T20:46:37.577Z,103057.63
2018-09-25T20:49:12.724Z,103059.92
2018-09-25T20:51:48.038Z,103069.58
2018-09-25T20:54:22.946Z,103066.38
2018-09-25T20:56:57.544Z,103074.00
2018-09-25T20:59:32.216Z,103076.49
2018-09-25T21:02:07.025Z,103072.89
2018-09-25T21:04:41.703Z,103068.01
2018-09-25T21:07:16.227Z,103073.84
2018-09-25T21:09:51.519Z,103061.70
2018-09-25T21:12:26.140Z,103055.54
2018-09-25T21:15:01.508Z,103052.23
2018-09-25T21:17:36.629Z,103051.62
2018-09-25T21:20:11.241Z,103044.09
2018-09-25T21:22:48.975Z,103048.91
2018-09-25T21:25:23.763Z,103044.50
2018-09-25T21:27:58.150Z,103033.55
2018-09-25T21:30:32.741Z,103043.13
2018-09-25T21:33:06.999Z,103036.52
2018-09-25T21:35:41.466Z,103031.16
2018-09-25T21:38:15.906Z,103028.45
2018-09-25T21:40:50.243Z,103025.15
2018-09-25T21:43:24.619Z,103014.70
2018-09-25T21:45:59.864Z,103008.80
2018-09-25T21:48:35.078Z,103010.80
2018-09-25T21:51:11.009Z,103018.08
2018-09-25T21:53:45.631Z,103025.92
2018-09-25T21:56:20.250Z,103033.50
2018-09-25T21:58:55.222Z,103038.50
2018-09-25T22:01:30.196Z,103044.70
2018-09-25T22:04:05.961Z,103042.61
2018-09-25T22:06:40.512Z,103035.01
2018-09-25T22:09:15.296Z,103043.66
2018-09-25T22:11:50.114Z,103047.10
2018-09-25T22:14:24.641Z,103044.31
2018-09-25T22:17:00.775Z,103038.33
2018-09-25T22:19:36.141Z,103039.89
2018-09-25T22:22:11.384Z,103027.02
2018-09-25T22:24:46.166Z,103008.70
2018-09-25T22:27:21.023Z,102996.50
2018-09-25T22:29:55.975Z,102995.52
2018-09-25T22:32:30.811Z,103008.02
2018-09-25T22:35:05.466Z,103004.55
2018-09-25T22:37:40.179Z,103000.59
2018-09-25T22:40:15.187Z,103001.45
2018-09-25T22:42:49.778Z,102999.16
2018-09-25T22:45:24.546Z,102986.42
2018-09-25T22:47:59.191Z,102982.78
2018-09-25T22:50:34.758Z,102984.57
2018-09-25T22:53:09.646Z,102987.92
2018-09-25T22:55:44.861Z,102980.06
2018-09-25T22:58:19.951Z,102964.08
2018-09-25T23:00:55.166Z,102958.87
2018-09-25T23:03:30.131Z,102967.39
2018-09-25T23:06:05.221Z,102964.22
2018-09-25T23:08:40.486Z,102964.75
2018-09-25T23:11:15.448Z,102964.36
2018-09-25T23:13:50.219Z,102961.14
2018-09-25T23:16:25.117Z,102958.73
2018-09-25T23:18:59.692Z,102966.15
2018-09-25T23:21:34.450Z,102963.38
2018-09-25T23:24:09.178Z,102963.50
2018-09-25T23:26:43.983Z,102971.02
2018-09-25T23:29:19.417Z,102968.84
2018-09-25T23:31:53.902Z,102960.45
2018-09-25T23:34:28.659Z,102952.86
2018-09-25T23:37:03.968Z,102952.80
2018-09-25T23:39:39.389Z,102940.64
2018-09-25T23:42:14.394Z,102932.98
2018-09-25T23:46:51.804Z,102922.42
2018-09-25T23:49:27.123Z,102925.86
2018-09-25T23:52:01.528Z,102929.05
2018-09-25T23:54:37.278Z,102934.05
2018-09-25T23:57:13.970Z,102933.55
2018-09-25T23:59:53.442Z,102930.48
